createdAt,value
2022-10-02T00:00:08.011Z,13.00
2022-10-02T00:02:54.076Z,13.00
2022-10-02T00:05:29.087Z,13.00
2022-10-02T00:07:59.008Z,13.10
2022-10-02T00:10:39.639Z,13.10
2022-10-02T00:13:11.208Z,13.10
2022-10-02T00:15:42.109Z,13.00
2022-10-02T00:18:16.106Z,13.00
2022-10-02T00:21:06.375Z,13.10
2022-10-02T00:23:41.691Z,13.10
2022-10-02T00:26:28.504Z,13.00
2022-10-02T00:29:14.035Z,13.10
2022-10-02T00:31:58.899Z,13.00
2022-10-02T00:34:30.746Z,13.00
2022-10-02T00:37:22.315Z,13.00
2022-10-02T00:40:10.775Z,13.10
2022-10-02T00:42:56.051Z,13.10
2022-10-02T00:45:34.812Z,13.10
2022-10-02T00:48:26.614Z,13.10
2022-10-02T00:51:01.102Z,13.00
2022-10-02T00:53:44.108Z,13.00
2022-10-02T00:56:33.089Z,13.00
2022-10-02T00:59:30.038Z,13.00
2022-10-02T01:02:09.590Z,13.00
2022-10-02T01:04:38.809Z,13.00
2022-10-02T01:07:08.794Z,13.00
2022-10-02T01:09:37.213Z,13.00
2022-10-02T01:12:04.132Z,13.00
2022-10-02T01:14:35.278Z,13.00
2022-10-02T01:17:02.924Z,13.00
2022-10-02T01:19:41.024Z,13.00
2022-10-02T01:22:25.393Z,13.00
2022-10-02T01:24:56.832Z,13.00
2022-10-02T01:27:25.477Z,13.00
2022-10-02T01:30:00.125Z,13.00
2022-10-02T01:32:29.272Z,13.00
2022-10-02T01:34:57.125Z,13.00
2022-10-02T01:37:29.260Z,13.00
2022-10-02T01:40:05.319Z,13.00
2022-10-02T01:42:32.444Z,13.00
2022-10-02T01:44:59.248Z,13.00
2022-10-02T01:47:49.344Z,13.00
2022-10-02T01:50:38.736Z,13.00
2022-10-02T01:53:16.212Z,13.00
2022-10-02T01:55:55.305Z,13.00
2022-10-02T01:58:32.548Z,13.00
2022-10-02T02:01:11.377Z,13.00
2022-10-02T02:04:03.193Z,13.00
2022-10-02T02:06:48.589Z,13.10
2022-10-02T02:09:24.194Z,13.00
2022-10-02T02:12:02.613Z,13.00
2022-10-02T02:14:37.390Z,13.00
2022-10-02T02:17:14.670Z,13.10
2022-10-02T02:19:50.745Z,13.10
2022-10-02T02:22:30.946Z,13.10
2022-10-02T02:25:07.984Z,13.10
2022-10-02T02:27:40.728Z,13.20
2022-10-02T02:30:11.989Z,13.20
2022-10-02T02:33:02.386Z,13.20
2022-10-02T02:35:35.860Z,13.20
2022-10-02T02:38:11.542Z,13.20
2022-10-02T02:40:42.732Z,13.30
2022-10-02T02:43:16.647Z,13.30
2022-10-02T02:45:55.302Z,13.30
2022-10-02T02:48:30.198Z,13.30
2022-10-02T02:51:04.721Z,13.20
2022-10-02T02:53:47.156Z,13.30
2022-10-02T02:56:17.410Z,13.30
2022-10-02T02:59:02.250Z,13.30
2022-10-02T03:01:29.138Z,13.30
2022-10-02T03:03:56.104Z,13.30
2022-10-02T03:06:39.926Z,13.30
2022-10-02T03:09:12.441Z,13.40
2022-10-02T03:11:46.300Z,13.40
2022-10-02T03:14:31.974Z,13.40
2022-10-02T03:17:07.602Z,13.40
2022-10-02T03:19:47.976Z,13.40
2022-10-02T03:22:43.754Z,13.40
2022-10-02T03:25:15.654Z,13.30
2022-10-02T03:28:10.573Z,13.30
2022-10-02T03:30:39.946Z,13.40
2022-10-02T03:33:09.303Z,13.30
2022-10-02T03:35:37.703Z,13.30
2022-10-02T03:38:07.503Z,13.30
2022-10-02T03:40:34.669Z,13.40
2022-10-02T03:43:01.864Z,13.50
2022-10-02T03:45:50.087Z,13.60
2022-10-02T03:48:17.704Z,13.60
2022-10-02T03:50:45.282Z,13.50
2022-10-02T03:53:21.528Z,13.50
2022-10-02T03:56:04.427Z,13.60
2022-10-02T03:58:32.880Z,13.50
2022-10-02T04:01:17.402Z,13.60
2022-10-02T04:03:50.880Z,13.60
2022-10-02T04:06:28.401Z,13.60
2022-10-02T04:09:09.413Z,13.60
2022-10-02T04:11:51.809Z,13.60
2022-10-02T04:14:30.276Z,13.60
2022-10-02T04:17:11.451Z,13.60
2022-10-02T04:19:49.016Z,13.60
2022-10-02T04:22:34.571Z,13.50
2022-10-02T04:25:15.909Z,13.50
2022-10-02T04:27:50.499Z,13.50
2022-10-02T04:30:20.059Z,13.50
2022-10-02T04:32:47.573Z,13.50
2022-10-02T04:35:22.956Z,13.50
2022-10-02T04:38:14.201Z,13.50
2022-10-02T04:41:05.470Z,13.40
2022-10-02T04:44:00.548Z,13.40
2022-10-02T04:46:49.054Z,13.40
2022-10-02T04:49:20.540Z,13.40
2022-10-02T04:52:23.586Z,13.40
2022-10-02T04:54:50.403Z,13.40
2022-10-02T04:57:26.091Z,13.40
2022-10-02T05:00:07.877Z,13.40
2022-10-02T05:02:47.800Z,13.40
2022-10-02T05:05:40.437Z,13.40
2022-10-02T05:08:30.764Z,13.40
2022-10-02T05:11:22.111Z,13.40
2022-10-02T05:13:54.826Z,13.50
2022-10-02T05:16:58.038Z,13.50
2022-10-02T05:19:46.536Z,13.50
2022-10-02T05:22:37.960Z,13.60
2022-10-02T05:25:42.532Z,13.60
2022-10-02T05:28:34.188Z,13.60
2022-10-02T05:31:31.449Z,13.60
2022-10-02T05:34:24.354Z,13.60
2022-10-02T05:37:00.324Z,13.60
2022-10-02T05:40:00.272Z,13.60
2022-10-02T05:42:38.194Z,13.60
2022-10-02T05:45:30.992Z,13.70
2022-10-02T05:48:19.885Z,13.70
2022-10-02T05:50:52.999Z,13.80
2022-10-02T05:53:30.410Z,13.80
2022-10-02T05:56:16.121Z,13.80
2022-10-02T05:59:01.079Z,13.80
2022-10-02T06:01:33.099Z,13.80
2022-10-02T06:04:16.747Z,13.90
2022-10-02T06:06:51.662Z,13.80
2022-10-02T06:09:33.263Z,13.80
2022-10-02T06:12:07.425Z,13.90
2022-10-02T06:14:41.946Z,14.00
2022-10-02T06:17:18.020Z,14.00
2022-10-02T06:20:16.417Z,14.00
2022-10-02T06:23:00.782Z,14.00
2022-10-02T06:25:39.552Z,14.00
2022-10-02T06:28:21.305Z,14.10
2022-10-02T06:30:56.905Z,14.10
2022-10-02T06:33:26.209Z,14.10
2022-10-02T06:36:16.643Z,14.10
2022-10-02T06:39:14.269Z,14.10
2022-10-02T06:41:56.682Z,14.10
2022-10-02T06:44:38.632Z,14.10
2022-10-02T06:47:08.345Z,14.20
2022-10-02T06:49:41.514Z,14.20
2022-10-02T06:52:34.453Z,14.20
2022-10-02T06:55:32.157Z,14.20
2022-10-02T06:58:36.805Z,14.30
2022-10-02T07:01:31.403Z,14.30
2022-10-02T07:04:18.418Z,14.30
2022-10-02T07:06:57.769Z,14.30
2022-10-02T07:09:43.975Z,14.30
2022-10-02T07:12:13.575Z,14.30
2022-10-02T07:15:04.612Z,14.30
2022-10-02T07:17:31.358Z,14.40
2022-10-02T07:20:29.733Z,14.40
2022-10-02T07:22:59.533Z,14.50
2022-10-02T07:25:26.259Z,14.50
2022-10-02T07:28:14.616Z,14.60
2022-10-02T07:31:07.521Z,14.60
2022-10-02T07:33:53.327Z,14.80
2022-10-02T07:36:50.888Z,14.80
2022-10-02T07:39:31.437Z,14.80
2022-10-02T07:42:32.810Z,14.80
2022-10-02T07:45:06.728Z,14.90
2022-10-02T07:48:05.469Z,14.90
2022-10-02T07:50:55.219Z,14.90
2022-10-02T07:53:40.471Z,14.80
2022-10-02T07:56:11.771Z,14.80
2022-10-02T07:58:43.774Z,14.90
2022-10-02T08:01:35.667Z,14.80
2022-10-02T08:04:17.332Z,14.80
2022-10-02T08:06:47.063Z,14.90
2022-10-02T08:09:23.347Z,14.90
2022-10-02T08:11:59.331Z,14.90
2022-10-02T08:14:42.234Z,15.00
2022-10-02T08:17:35.985Z,15.00
2022-10-02T08:20:33.973Z,15.00
2022-10-02T08:23:13.511Z,15.10
2022-10-02T08:26:01.128Z,15.10
2022-10-02T08:28:37.681Z,15.20
2022-10-02T08:31:11.031Z,15.20
2022-10-02T08:33:39.050Z,15.30
2022-10-02T08:36:20.933Z,15.30
2022-10-02T08:39:30.673Z,15.40
2022-10-02T08:42:15.602Z,15.40
2022-10-02T08:45:02.323Z,15.40
2022-10-02T08:47:37.940Z,15.40
2022-10-02T08:50:31.808Z,15.40
2022-10-02T08:53:19.772Z,15.50
2022-10-02T08:56:17.733Z,15.60
2022-10-02T08:58:57.867Z,15.70
2022-10-02T09:01:49.485Z,15.60
2022-10-02T09:04:41.070Z,15.50
2022-10-02T09:07:47.093Z,15.50
2022-10-02T09:10:45.835Z,15.60
2022-10-02T09:13:12.696Z,15.80
2022-10-02T09:16:11.555Z,15.80
2022-10-02T09:19:13.737Z,15.70
2022-10-02T09:22:19.322Z,15.70
2022-10-02T09:25:01.895Z,15.80
2022-10-02T09:27:59.236Z,15.90
2022-10-02T09:30:34.993Z,15.90
2022-10-02T09:33:20.557Z,16.10
2022-10-02T09:36:35.061Z,16.10
2022-10-02T09:39:09.721Z,16.20
2022-10-02T09:42:00.795Z,16.10
2022-10-02T09:45:18.173Z,16.20
2022-10-02T09:48:34.657Z,16.30
2022-10-02T09:51:01.470Z,16.30
2022-10-02T09:54:13.548Z,16.20
2022-10-02T09:56:53.329Z,16.20
2022-10-02T09:59:38.246Z,16.20
2022-10-02T10:02:25.874Z,16.20
2022-10-02T10:05:13.568Z,16.20
2022-10-02T10:08:04.438Z,16.10
2022-10-02T10:11:00.589Z,16.10
2022-10-02T10:13:45.886Z,16.20
2022-10-02T10:16:31.522Z,16.10
2022-10-02T10:19:23.729Z,16.20
2022-10-02T10:22:12.650Z,16.30
2022-10-02T10:24:53.423Z,16.30
2022-10-02T10:27:47.306Z,16.40
2022-10-02T10:30:17.222Z,16.40
2022-10-02T10:33:20.608Z,16.30
2022-10-02T10:36:36.638Z,16.40
2022-10-02T10:39:17.602Z,16.40
2022-10-02T10:42:25.013Z,16.30
2022-10-02T10:45:00.381Z,16.20
2022-10-02T10:47:51.876Z,16.20
2022-10-02T10:50:42.355Z,16.10
2022-10-02T10:53:17.765Z,16.10
2022-10-02T10:56:10.022Z,16.10
2022-10-02T10:59:29.999Z,16.10
2022-10-02T11:02:15.055Z,16.10
2022-10-02T11:05:19.429Z,16.00
2022-10-02T11:08:12.754Z,16.10
2022-10-02T11:10:39.480Z,16.00
2022-10-02T11:13:33.823Z,15.90
2022-10-02T11:16:14.805Z,16.00
2022-10-02T11:18:53.251Z,16.00
2022-10-02T11:21:44.490Z,16.10
2022-10-02T11:24:38.483Z,16.30
2022-10-02T11:27:24.292Z,16.40
2022-10-02T11:30:23.261Z,16.70
2022-10-02T11:33:17.372Z,16.80
2022-10-02T11:35:53.025Z,17.00
2022-10-02T11:38:40.239Z,17.20
2022-10-02T11:41:31.069Z,17.40
2022-10-02T11:44:16.952Z,17.40
2022-10-02T11:46:52.174Z,17.40
2022-10-02T11:49:51.809Z,17.40
2022-10-02T11:52:45.932Z,17.30
2022-10-02T11:55:41.041Z,17.30
2022-10-02T11:58:49.609Z,17.30
2022-10-02T12:01:38.503Z,17.40
2022-10-02T12:04:36.862Z,17.50
2022-10-02T12:07:34.027Z,17.50
2022-10-02T12:10:36.430Z,17.40
2022-10-02T12:13:06.092Z,17.40
2022-10-02T12:15:58.311Z,17.30
2022-10-02T12:18:49.370Z,17.40
2022-10-02T12:21:50.770Z,17.50
2022-10-02T12:25:05.039Z,17.50
2022-10-02T12:27:42.725Z,17.80
2022-10-02T12:30:48.421Z,18.10
2022-10-02T12:33:28.636Z,18.00
2022-10-02T12:36:00.854Z,18.10
2022-10-02T12:38:39.690Z,18.30
2022-10-02T12:41:34.421Z,18.60
2022-10-02T12:44:01.535Z,18.60
2022-10-02T12:46:40.311Z,18.80
2022-10-02T12:49:16.459Z,18.90
2022-10-02T12:52:28.501Z,19.00
2022-10-02T12:55:07.419Z,19.30
2022-10-02T12:57:56.025Z,19.40
2022-10-02T13:00:29.202Z,19.00
2022-10-02T13:03:01.303Z,19.00
2022-10-02T13:06:01.882Z,19.40
2022-10-02T13:08:36.585Z,19.60
2022-10-02T13:11:27.245Z,19.60
2022-10-02T13:14:12.879Z,19.70
2022-10-02T13:16:48.990Z,20.00
2022-10-02T13:19:34.114Z,20.20
2022-10-02T13:22:39.335Z,20.30
2022-10-02T13:25:33.110Z,20.30
2022-10-02T13:28:07.444Z,20.30
2022-10-02T13:31:02.564Z,19.70
2022-10-02T13:34:01.762Z,19.20
2022-10-02T13:36:51.748Z,18.90
2022-10-02T13:39:50.176Z,18.80
2022-10-02T13:42:37.133Z,18.60
2022-10-02T13:45:29.505Z,18.50
2022-10-02T13:48:13.143Z,18.40
2022-10-02T13:50:50.619Z,18.30
2022-10-02T13:53:51.555Z,18.60
2022-10-02T13:57:09.945Z,19.30
2022-10-02T13:59:42.982Z,20.00
2022-10-02T14:02:15.110Z,20.20
2022-10-02T14:05:32.079Z,20.10
2022-10-02T14:08:24.792Z,19.80
2022-10-02T14:11:10.030Z,19.50
2022-10-02T14:14:03.675Z,19.60
2022-10-02T14:16:42.739Z,19.70
2022-10-02T14:19:35.555Z,19.80
2022-10-02T14:22:30.393Z,20.00
2022-10-02T14:25:20.381Z,20.10
2022-10-02T14:28:12.570Z,20.10
2022-10-02T14:31:15.089Z,20.30
2022-10-02T14:33:55.967Z,20.30
2022-10-02T14:36:50.965Z,20.20
2022-10-02T14:39:36.466Z,20.20
2022-10-02T14:42:25.915Z,20.30
2022-10-02T14:44:57.003Z,20.10
2022-10-02T14:47:48.280Z,20.20
2022-10-02T14:50:27.048Z,20.40
2022-10-02T14:53:21.505Z,20.20
2022-10-02T14:56:07.333Z,20.10
2022-10-02T14:58:59.136Z,20.00
2022-10-02T15:01:26.936Z,19.90
2022-10-02T15:04:13.595Z,19.90
2022-10-02T15:06:59.003Z,19.70
2022-10-02T15:09:25.816Z,19.60
2022-10-02T15:12:05.871Z,19.50
2022-10-02T15:14:46.670Z,19.40
2022-10-02T15:17:48.632Z,19.40
2022-10-02T15:20:34.734Z,19.30
2022-10-02T15:23:04.044Z,19.30
2022-10-02T15:25:43.204Z,19.30
2022-10-02T15:28:44.842Z,19.10
2022-10-02T15:31:31.499Z,19.10
2022-10-02T15:34:23.260Z,19.10
2022-10-02T15:37:26.577Z,19.10
2022-10-02T15:40:34.020Z,18.90
2022-10-02T15:43:31.163Z,18.70
2022-10-02T15:46:13.015Z,18.60
2022-10-02T15:48:52.388Z,18.60
2022-10-02T15:51:31.475Z,18.50
2022-10-02T15:54:16.395Z,18.40
2022-10-02T15:57:26.256Z,18.30
2022-10-02T15:59:59.234Z,18.20
2022-10-02T16:02:54.353Z,18.10
2022-10-02T16:05:45.171Z,18.00
2022-10-02T16:08:33.972Z,17.90
2022-10-02T16:11:00.772Z,17.90
2022-10-02T16:13:43.490Z,17.90
2022-10-02T16:16:33.358Z,18.00
2022-10-02T16:19:18.823Z,18.00
2022-10-02T16:22:00.736Z,17.90
2022-10-02T16:24:56.007Z,17.80
2022-10-02T16:27:34.870Z,17.80
2022-10-02T16:30:16.517Z,17.70
2022-10-02T16:32:59.270Z,17.50
2022-10-02T16:35:26.176Z,17.40
2022-10-02T16:38:00.721Z,17.40
2022-10-02T16:40:43.895Z,17.20
2022-10-02T16:43:19.571Z,17.20
2022-10-02T16:46:04.986Z,17.10
2022-10-02T16:48:54.551Z,17.10
2022-10-02T16:51:50.077Z,17.00
2022-10-02T16:54:25.585Z,17.00
2022-10-02T16:57:22.325Z,16.90
2022-10-02T17:00:02.228Z,16.80
2022-10-02T17:02:37.893Z,16.80
2022-10-02T17:05:26.990Z,16.70
2022-10-02T17:07:53.705Z,16.70
2022-10-02T17:10:37.450Z,16.70
2022-10-02T17:13:13.544Z,16.70
2022-10-02T17:15:56.616Z,16.70
2022-10-02T17:18:58.194Z,16.60
2022-10-02T17:21:39.172Z,16.50
2022-10-02T17:24:36.592Z,16.50
2022-10-02T17:27:18.008Z,16.40
2022-10-02T17:30:08.306Z,16.30
2022-10-02T17:32:37.935Z,16.30
2022-10-02T17:35:35.550Z,16.40
2022-10-02T17:38:05.230Z,16.30
2022-10-02T17:40:50.904Z,16.30
2022-10-02T17:43:40.111Z,16.30
2022-10-02T17:46:46.409Z,16.30
2022-10-02T17:49:25.351Z,16.30
2022-10-02T17:52:40.117Z,16.30
2022-10-02T17:55:31.818Z,16.30
2022-10-02T17:58:40.054Z,16.30
2022-10-02T18:01:09.732Z,16.30
2022-10-02T18:03:59.922Z,16.30
2022-10-02T18:06:57.156Z,16.20
2022-10-02T18:09:26.661Z,16.20
2022-10-02T18:12:13.250Z,16.20
2022-10-02T18:14:58.044Z,16.20
2022-10-02T18:18:08.303Z,16.20
2022-10-02T18:20:57.440Z,16.20
2022-10-02T18:23:49.108Z,16.20
2022-10-02T18:26:54.337Z,16.20
2022-10-02T18:29:24.004Z,16.20
2022-10-02T18:32:06.995Z,16.20
2022-10-02T18:34:43.564Z,16.20
2022-10-02T18:37:35.761Z,16.20
2022-10-02T18:40:23.923Z,16.10
2022-10-02T18:43:22.044Z,16.10
2022-10-02T18:46:12.140Z,16.20
2022-10-02T18:49:12.360Z,16.10
2022-10-02T18:51:45.286Z,16.00
2022-10-02T18:54:28.939Z,16.00
2022-10-02T18:57:09.344Z,16.00
2022-10-02T18:59:48.199Z,16.00
2022-10-02T19:02:45.434Z,15.90
2022-10-02T19:05:12.407Z,15.80
2022-10-02T19:07:50.248Z,15.90
2022-10-02T19:10:40.170Z,15.80
2022-10-02T19:13:17.521Z,15.80
2022-10-02T19:15:46.485Z,15.80
2022-10-02T19:18:23.509Z,15.80
2022-10-02T19:20:58.430Z,15.90
2022-10-02T19:23:30.181Z,15.90
2022-10-02T19:26:02.968Z,15.90
2022-10-02T19:28:31.689Z,15.90
2022-10-02T19:31:05.389Z,15.90
2022-10-02T19:33:46.975Z,15.90
2022-10-02T19:36:23.989Z,15.90
2022-10-02T19:39:04.798Z,15.90
2022-10-02T19:41:35.468Z,15.90
2022-10-02T19:44:07.021Z,15.90
2022-10-02T19:46:53.305Z,16.00
2022-10-02T19:49:34.172Z,16.00
2022-10-02T19:52:01.294Z,15.90
2022-10-02T19:54:36.686Z,15.90
2022-10-02T19:57:11.962Z,15.90
2022-10-02T19:59:44.288Z,15.90
2022-10-02T20:02:34.694Z,15.90
2022-10-02T20:05:06.314Z,15.70
2022-10-02T20:07:38.147Z,15.60
2022-10-02T20:10:28.295Z,15.50
2022-10-02T20:13:02.577Z,15.40
2022-10-02T20:16:04.554Z,15.20
2022-10-02T20:18:31.521Z,15.10
2022-10-02T20:21:17.848Z,15.00
2022-10-02T20:23:50.541Z,15.00
2022-10-02T20:26:22.023Z,15.00
2022-10-02T20:28:55.212Z,14.90
2022-10-02T20:31:33.464Z,14.90
2022-10-02T20:34:05.245Z,14.70
2022-10-02T20:36:52.947Z,14.70
2022-10-02T20:39:26.300Z,14.60
2022-10-02T20:42:22.935Z,14.30
2022-10-02T20:44:50.743Z,14.10
2022-10-02T20:47:41.801Z,14.20
2022-10-02T20:50:33.138Z,14.10
2022-10-02T20:53:27.921Z,13.90
2022-10-02T20:56:25.376Z,14.00
2022-10-02T20:59:04.736Z,14.00
2022-10-02T21:01:59.165Z,13.80
2022-10-02T21:04:35.159Z,13.60
2022-10-02T21:07:24.594Z,13.80
2022-10-02T21:09:51.379Z,14.10
2022-10-02T21:12:18.165Z,14.00
2022-10-02T21:14:56.976Z,14.10
2022-10-02T21:17:52.667Z,13.90
2022-10-02T21:20:51.565Z,14.00
2022-10-02T21:23:55.849Z,14.20
2022-10-02T21:26:40.341Z,14.10
2022-10-02T21:29:16.399Z,13.90
2022-10-02T21:32:04.517Z,14.10
2022-10-02T21:34:41.068Z,14.20
2022-10-02T21:37:23.175Z,13.70
2022-10-02T21:39:55.710Z,13.70
2022-10-02T21:42:37.583Z,13.80
2022-10-02T21:45:38.271Z,14.10
2022-10-02T21:48:43.751Z,14.30
2022-10-02T21:51:31.639Z,14.30
2022-10-02T21:54:23.607Z,14.00
2022-10-02T21:57:10.961Z,13.60
2022-10-02T22:00:13.901Z,13.70
2022-10-02T22:02:43.719Z,13.90
2022-10-02T22:05:45.984Z,13.80
2022-10-02T22:08:12.791Z,13.70
2022-10-02T22:10:47.633Z,13.90
2022-10-02T22:13:37.862Z,14.10
2022-10-02T22:16:13.683Z,14.10
2022-10-02T22:18:55.222Z,13.90
2022-10-02T22:21:33.971Z,13.80
2022-10-02T22:24:34.697Z,13.70
2022-10-02T22:27:16.782Z,13.40
2022-10-02T22:29:53.454Z,13.60
2022-10-02T22:33:09.237Z,13.40
2022-10-02T22:36:13.863Z,13.40
2022-10-02T22:38:51.460Z,13.50
2022-10-02T22:41:41.935Z,13.50
2022-10-02T22:44:39.452Z,13.80
2022-10-02T22:47:20.305Z,13.90
2022-10-02T22:49:52.555Z,13.90
2022-10-02T22:52:27.713Z,13.90
2022-10-02T22:55:12.691Z,14.10
2022-10-02T22:57:52.028Z,14.20
2022-10-02T23:00:26.181Z,14.20
2022-10-02T23:03:19.431Z,13.90
2022-10-02T23:05:50.944Z,14.00
2022-10-02T23:09:01.971Z,14.30
2022-10-02T23:11:46.902Z,13.90
2022-10-02T23:14:13.604Z,13.70
2022-10-02T23:17:05.243Z,14.00
2022-10-02T23:20:14.390Z,14.20
2022-10-02T23:22:51.950Z,14.20
2022-10-02T23:25:42.416Z,14.00
2022-10-02T23:28:18.373Z,13.70
2022-10-02T23:31:06.142Z,13.60
2022-10-02T23:34:05.794Z,13.60
2022-10-02T23:36:56.820Z,13.40
2022-10-02T23:39:39.420Z,13.70
2022-10-02T23:42:11.176Z,13.70
2022-10-02T23:44:46.532Z,13.70
2022-10-02T23:47:28.941Z,13.60
2022-10-02T23:49:57.704Z,13.50
2022-10-02T23:52:55.897Z,13.70
2022-10-02T23:55:53.897Z,13.70
2022-10-02T23:58:48.033Z,13.50
